Terminal Aerodrome Forecast
Issued by NWS

Home | Current Version | Previous Version | Graphics & Text | Print | Product List | Glossary Off
Versions: 1 2 3 4 5 6 7 8 9 10 11 12 13 14 15 16

252
FTUS43 KBIS 271720
TAFJMS
TAF
KJMS 271720Z 2718/2818 17021G30KT P6SM FEW100 SCT250
     FM272100 17023G32KT P6SM BKN250
     FM280300 15013KT P6SM VCTS BKN150CB
     FM280600 21008KT P6SM -SHRA OVC060
      TEMPO 2807/2809 5SM TSRA BKN040CB
     FM280900 24008KT P6SM BKN060
     FM281100 30009KT P6SM BKN080
     FM281700 32016G24KT P6SM SCT200=

USA.gov is the U.S. government's official web portal to all federal, state and local government web resources and services.